Time;durP1;ratioP1;P1;durP2;ratioP2;P2;SDS_P1;SDS_P2;PMS_P1;PMS_P2;Temp;Humidity;BMP_temperature;BMP_pressure;BME280_temperature;BME280_humidity;BME280_pressure;Samples;Min_cycle;Max_cycle;Signal;HPM_P1;HPM_P2
2023/09/28 00:00:58;;;;;;;;;10.00;10.00;;;;;21.37;68.78;100857.03;5079300;27;45539;-86
2023/09/28 00:03:24;;;;;;;;;13.00;11.33;;;;;21.13;68.58;100833.16;5078377;27;45447;-85
2023/09/28 00:05:50;;;;;;;;;16.67;14.00;;;;;21.10;68.65;100836.16;5078868;28;45176;-86
2023/09/28 00:08:15;;;;;;;;;12.33;11.67;;;;;21.15;69.08;100849.25;5078601;27;45228;-85
2023/09/28 00:10:41;;;;;;;;;13.33;12.00;;;;;21.22;69.24;100863.84;5076518;28;56209;-86
2023/09/28 00:13:06;;;;;;;;;11.67;11.00;;;;;21.21;69.12;100872.97;5078149;27;45807;-85
2023/09/28 00:15:31;;;;;;;;;10.33;9.00;;;;;21.11;69.58;100862.22;5077652;28;60959;-85
2023/09/28 00:17:57;;;;;;;;;12.67;10.67;;;;;20.97;69.85;100838.34;5078444;28;45225;-87
2023/09/28 00:20:23;;;;;;;;;9.33;8.67;;;;;20.86;70.06;100831.25;5079519;27;45343;-86
2023/09/28 00:22:51;;;;;;;;;11.00;11.00;;;;;21.08;69.98;100861.63;5078233;28;45355;-84
2023/09/28 00:25:17;;;;;;;;;11.67;10.00;;;;;21.01;70.27;100869.50;5078309;27;45365;-86
2023/09/28 00:27:45;;;;;;;;;11.00;10.00;;;;;20.98;70.64;100861.69;5077833;27;45389;-84
2023/09/28 00:30:18;;;;;;;;;13.67;11.00;;;;;20.74;70.58;100843.25;5078495;27;45384;-85
2023/09/28 00:32:45;;;;;;;;;9.67;9.00;;;;;20.72;70.74;100849.78;5077861;27;45595;-85
2023/09/28 00:35:10;;;;;;;;;13.33;10.67;;;;;20.86;71.21;100874.50;5078212;27;45326;-86
2023/09/28 00:37:36;;;;;;;;;9.00;9.00;;;;;20.74;71.08;100869.41;5078137;27;45244;-84
2023/09/28 00:40:16;;;;;;;;;9.33;9.33;;;;;20.86;70.75;100889.88;5078583;27;45681;-87
2023/09/28 00:42:43;;;;;;;;;9.00;9.00;;;;;20.84;70.92;100892.72;5078341;27;45663;-85
2023/09/28 00:45:09;;;;;;;;;11.00;8.00;;;;;20.48;70.74;100829.47;5075485;28;45533;-84
2023/09/28 00:47:38;;;;;;;;;10.67;10.67;;;;;20.97;70.58;100902.38;5077919;28;45166;-86
2023/09/28 00:50:10;;;;;;;;;12.00;10.67;;;;;20.99;70.21;100906.66;5082357;27;45207;-87
2023/09/28 00:52:38;;;;;;;;;12.33;9.33;;;;;21.08;70.17;100921.13;5077977;28;45274;-86
2023/09/28 00:55:04;;;;;;;;;9.67;8.67;;;;;21.12;69.98;100918.00;5079997;28;45299;-84
2023/09/28 00:57:33;;;;;;;;;9.00;9.00;;;;;21.14;69.81;100898.91;5081447;27;45820;-85
2023/09/28 00:59:59;;;;;;;;;9.67;9.67;;;;;21.06;69.56;100890.69;5080772;27;45559;-86
2023/09/28 01:02:26;;;;;;;;;12.33;10.33;;;;;21.04;69.57;100890.81;5080103;27;45290;-87
2023/09/28 01:04:51;;;;;;;;;9.00;9.00;;;;;21.06;69.55;100907.75;5078174;27;45311;-84
2023/09/28 01:07:27;;;;;;;;;6.67;6.67;;;;;21.00;69.75;100896.69;5077958;27;45422;-87
2023/09/28 01:09:53;;;;;;;;;8.00;8.00;;;;;20.86;69.91;100876.38;5078035;28;45547;-86
2023/09/28 01:12:22;;;;;;;;;7.00;7.00;;;;;20.95;69.53;100891.69;5075859;28;48646;-86
2023/09/28 01:14:48;;;;;;;;;7.67;7.67;;;;;20.91;69.95;100888.44;5077304;28;45487;-86
2023/09/28 01:17:14;;;;;;;;;8.67;7.00;;;;;20.86;70.00;100876.38;5077420;27;45530;-86
2023/09/28 01:19:39;;;;;;;;;7.00;7.00;;;;;20.76;70.10;100867.41;5077611;28;45313;-85
2023/09/28 01:22:11;;;;;;;;;7.67;6.00;;;;;20.76;70.23;100873.69;5077358;28;46263;-86
2023/09/28 01:24:38;;;;;;;;;11.67;8.33;;;;;20.37;70.61;100828.75;5077218;27;45939;-86
2023/09/28 01:27:04;;;;;;;;;8.33;8.33;;;;;20.32;70.65;100821.94;5076002;28;45541;-86
2023/09/28 01:29:31;;;;;;;;;8.67;7.00;;;;;20.65;70.35;100891.91;5077893;27;45444;-84
2023/09/28 01:31:57;;;;;;;;;8.00;5.33;;;;;20.47;70.89;100875.56;5075602;28;48611;-86
2023/09/28 01:34:22;;;;;;;;;9.33;7.00;;;;;20.38;70.92;100863.72;5077292;28;45231;-85
2023/09/28 01:36:47;;;;;;;;;7.33;7.33;;;;;20.57;70.70;100906.09;5077183;28;45472;-85
2023/09/28 01:39:13;;;;;;;;;7.00;7.00;;;;;20.31;71.00;100865.28;5077569;28;45303;-86
2023/09/28 01:41:38;;;;;;;;;10.33;7.67;;;;;20.29;70.94;100867.25;5076850;28;47541;-86
2023/09/28 01:44:04;;;;;;;;;7.00;7.00;;;;;20.54;71.01;100901.84;5077350;27;45416;-86
2023/09/28 01:46:29;;;;;;;;;8.00;8.00;;;;;20.04;70.98;100818.22;5076906;27;45619;-86
2023/09/28 01:48:54;;;;;;;;;7.67;7.67;;;;;20.43;71.02;100883.06;5077459;27;45583;-86
2023/09/28 01:51:21;;;;;;;;;5.67;5.67;;;;;20.36;70.68;100865.72;5076669;27;45518;-85
2023/09/28 01:53:46;;;;;;;;;4.33;4.00;;;;;20.15;71.02;100835.28;5076609;28;45465;-86
2023/09/28 01:56:11;;;;;;;;;14.33;8.00;;;;;20.36;70.92;100876.53;5077090;28;58722;-86
2023/09/28 01:58:37;;;;;;;;;10.00;7.67;;;;;20.61;70.76;100913.81;5079036;28;49472;-85
2023/09/28 02:01:02;;;;;;;;;6.00;6.00;;;;;20.54;70.63;100907.25;5079725;28;47691;-85
2023/09/28 02:03:28;;;;;;;;;9.33;7.33;;;;;20.73;70.12;100922.63;5096439;27;45388;-86
2023/09/28 02:05:53;;;;;;;;;6.00;6.00;;;;;20.68;70.75;100897.00;5080369;27;45337;-85
2023/09/28 02:08:19;;;;;;;;;9.00;6.00;;;;;20.82;70.50;100929.84;5081320;28;45534;-86
2023/09/28 02:10:45;;;;;;;;;6.00;6.00;;;;;20.78;70.03;100919.47;5082173;27;45747;-86
2023/09/28 02:13:11;;;;;;;;;6.33;6.33;;;;;20.77;70.43;100912.38;5082793;27;45174;-86
2023/09/28 02:15:37;;;;;;;;;5.67;5.67;;;;;20.82;70.42;100929.84;5080397;28;45478;-87
2023/09/28 02:18:04;;;;;;;;;6.00;6.00;;;;;20.83;70.51;100933.41;5080996;27;45324;-86
2023/09/28 02:20:31;;;;;;;;;7.67;7.33;;;;;20.65;70.51;100890.03;5079460;28;45346;-86
2023/09/28 02:22:57;;;;;;;;;5.00;5.00;;;;;20.71;70.44;100897.59;5080220;27;45370;-86
2023/09/28 02:25:24;;;;;;;;;8.00;6.33;;;;;20.81;70.51;100924.59;5079920;27;45467;-87
2023/09/28 02:27:51;;;;;;;;;7.00;7.00;;;;;20.72;70.66;100909.25;5080303;27;45503;-86
2023/09/28 02:30:19;;;;;;;;;7.33;5.67;;;;;20.77;70.65;100928.59;5079497;27;45751;-87
2023/09/28 02:32:49;;;;;;;;;6.67;6.00;;;;;20.73;70.64;100913.66;5079807;27;45337;-86
2023/09/28 02:35:16;;;;;;;;;5.67;5.33;;;;;20.72;70.77;100914.66;5079980;28;45178;-88
2023/09/28 02:37:44;;;;;;;;;7.33;6.33;;;;;20.69;70.61;100920.31;5079827;28;45591;-86
2023/09/28 02:40:10;;;;;;;;;8.00;7.00;;;;;20.81;70.45;100930.84;5078995;27;46122;-87
2023/09/28 02:42:35;;;;;;;;;9.33;6.00;;;;;20.61;70.33;100897.59;5074712;28;45464;-85
2023/09/28 02:45:02;;;;;;;;;7.00;7.00;;;;;20.55;70.68;100884.63;5059405;28;45497;-86
2023/09/28 02:47:28;;;;;;;;;5.67;5.67;;;;;20.79;70.69;100915.78;5077180;28;45546;-85
2023/09/28 02:49:54;;;;;;;;;6.00;6.00;;;;;20.46;70.83;100882.81;5078313;27;63979;-85
2023/09/28 02:52:19;;;;;;;;;5.67;5.67;;;;;20.72;70.95;100920.06;5078608;28;45407;-85
2023/09/28 02:54:46;;;;;;;;;6.33;5.67;;;;;20.54;70.95;100893.75;5079944;27;45245;-85
2023/09/28 02:57:12;;;;;;;;;7.00;7.00;;;;;20.69;71.20;100923.03;5079885;28;45234;-86
2023/09/28 02:59:37;;;;;;;;;10.33;7.33;;;;;20.68;71.18;100927.59;5078686;28;46356;-85
2023/09/28 03:02:03;;;;;;;;;6.67;6.00;;;;;20.70;71.08;100917.47;5079527;28;45317;-85
2023/09/28 03:04:33;;;;;;;;;6.00;6.00;;;;;20.41;71.03;100878.78;5079838;27;45409;-84
2023/09/28 03:06:59;;;;;;;;;4.33;4.33;;;;;20.66;71.25;100934.13;5078227;28;45409;-86
2023/09/28 03:09:24;;;;;;;;;7.00;7.00;;;;;20.11;71.71;100842.81;5078532;28;51115;-85
2023/09/28 03:11:50;;;;;;;;;8.67;8.00;;;;;20.52;71.73;100928.16;5079122;27;45311;-85
2023/09/28 03:14:15;;;;;;;;;6.33;6.33;;;;;20.39;71.73;100903.25;5079351;27;45247;-86
2023/09/28 03:16:40;;;;;;;;;8.00;8.00;;;;;20.47;71.60;100894.47;5079114;27;45212;-86
2023/09/28 03:19:07;;;;;;;;;10.33;6.00;;;;;20.47;71.33;100903.44;5078893;28;45310;-85
2023/09/28 03:21:33;;;;;;;;;8.67;8.67;;;;;20.44;71.42;100890.19;5079075;28;45263;-85
2023/09/28 03:23:59;;;;;;;;;9.00;7.33;;;;;20.68;71.47;100929.44;5079389;28;45231;-86
2023/09/28 03:26:25;;;;;;;;;7.00;5.67;;;;;20.65;71.56;100940.53;5078691;28;45176;-85
2023/09/28 03:28:50;;;;;;;;;5.67;5.67;;;;;20.47;70.89;100914.22;5078228;27;45453;-85
2023/09/28 03:31:16;;;;;;;;;6.67;6.67;;;;;20.56;69.35;100956.59;5078042;27;45476;-85
2023/09/28 03:33:41;;;;;;;;;7.00;7.00;;;;;20.35;65.89;100950.44;5077514;28;45918;-84
2023/09/28 03:36:07;;;;;;;;;3.00;3.00;;;;;19.87;64.70;100891.81;5078406;27;45526;-85
2023/09/28 03:38:33;;;;;;;;;5.67;4.00;;;;;20.09;62.44;100942.00;5077259;28;47367;-85
2023/09/28 03:40:58;;;;;;;;;6.00;3.00;;;;;20.20;62.01;100973.44;5078252;27;45342;-85
2023/09/28 03:43:24;;;;;;;;;1.00;1.00;;;;;20.06;60.67;100977.41;5078884;28;45413;-85
2023/09/28 03:45:50;;;;;;;;;3.67;3.00;;;;;19.90;59.93;100983.28;5078750;28;45271;-87
2023/09/28 03:48:15;;;;;;;;;5.00;2.33;;;;;19.31;59.89;100911.16;5078324;27;45541;-85
2023/09/28 03:50:40;;;;;;;;;4.00;2.00;;;;;19.26;60.03;100907.16;5077846;27;45279;-87
2023/09/28 03:53:06;;;;;;;;;3.67;2.00;;;;;19.45;59.55;100953.09;5077737;28;56035;-86
2023/09/28 03:55:31;;;;;;;;;3.00;3.00;;;;;19.34;59.62;100962.13;5078810;28;45554;-86
2023/09/28 03:57:59;;;;;;;;;2.00;2.00;;;;;19.14;60.16;100952.19;5078912;28;45196;-84
2023/09/28 04:00:25;;;;;;;;;3.00;2.00;;;;;18.90;60.48;100913.91;5080676;27;45393;-83
2023/09/28 04:02:51;;;;;;;;;2.67;2.00;;;;;19.00;60.54;100934.53;5079504;27;45346;-84
2023/09/28 04:05:17;;;;;;;;;3.00;3.00;;;;;19.21;60.39;100977.66;5080589;28;45390;-84
2023/09/28 04:07:43;;;;;;;;;1.00;1.00;;;;;19.21;60.91;100979.50;5080883;28;46210;-85
2023/09/28 04:10:09;;;;;;;;;3.33;2.33;;;;;19.06;61.06;100965.50;5080703;27;45350;-84
2023/09/28 04:12:35;;;;;;;;;4.67;1.33;;;;;18.91;60.96;100940.72;5079261;27;45499;-83
2023/09/28 04:15:01;;;;;;;;;5.67;2.67;;;;;19.15;60.65;100975.50;5080132;27;45374;-84
2023/09/28 04:17:26;;;;;;;;;2.00;2.00;;;;;19.00;60.40;100952.53;5079408;27;45576;-84
2023/09/28 04:19:52;;;;;;;;;5.00;2.00;;;;;18.88;60.53;100940.09;5080151;27;45267;-85
2023/09/28 04:22:18;;;;;;;;;3.33;1.67;;;;;18.72;60.84;100919.00;5075734;28;45294;-84
2023/09/28 04:24:43;;;;;;;;;2.33;1.33;;;;;19.12;60.93;100994.63;5059089;28;45321;-84
2023/09/28 04:27:09;;;;;;;;;3.67;3.00;;;;;19.19;60.72;101003.91;5056824;28;48113;-86
2023/09/28 04:29:35;;;;;;;;;12.00;8.33;;;;;19.25;60.61;101010.59;5057384;28;45353;-85
2023/09/28 04:32:01;;;;;;;;;5.00;2.67;;;;;19.26;60.38;101023.09;5074142;28;45456;-84
2023/09/28 04:34:26;;;;;;;;;8.33;6.00;;;;;19.29;60.73;101018.31;5076251;28;45639;-85
2023/09/28 04:36:52;;;;;;;;;3.00;2.00;;;;;19.27;60.39;101022.09;5077900;28;45533;-85
2023/09/28 04:39:18;;;;;;;;;4.00;4.00;;;;;19.22;60.71;101019.81;5077820;28;45498;-85
2023/09/28 04:41:44;;;;;;;;;2.00;2.00;;;;;19.27;60.80;101012.22;5078906;27;46043;-86
2023/09/28 04:44:09;;;;;;;;;3.67;3.00;;;;;19.09;60.87;100986.81;5078886;27;45414;-86
2023/09/28 04:46:35;;;;;;;;;5.00;3.00;;;;;19.18;60.62;100991.41;5078820;28;46926;-84
2023/09/28 04:49:01;;;;;;;;;5.00;2.00;;;;;19.30;60.71;101014.63;5079176;28;45230;-86
2023/09/28 04:51:26;;;;;;;;;5.00;4.00;;;;;19.07;60.65;100983.38;5076771;28;45428;-84
2023/09/28 04:53:52;;;;;;;;;6.00;5.00;;;;;19.25;61.09;101014.16;5075960;28;45559;-85
2023/09/28 04:56:17;;;;;;;;;7.67;6.00;;;;;19.19;61.22;100990.44;5076966;27;46009;-86
2023/09/28 04:58:45;;;;;;;;;2.00;2.00;;;;;19.33;60.75;101017.06;5076937;27;45385;-85
2023/09/28 05:01:11;;;;;;;;;11.67;3.00;;;;;19.18;60.55;100996.81;5077001;28;45302;-85
2023/09/28 05:03:36;;;;;;;;;7.67;3.33;;;;;19.27;60.61;101006.81;5082727;27;45465;-84
2023/09/28 05:06:02;;;;;;;;;1.00;1.00;;;;;19.24;60.70;101000.81;5078609;28;46337;-85
2023/09/28 05:08:28;;;;;;;;;5.33;2.67;;;;;19.25;60.85;101007.91;5077228;28;45347;-84
2023/09/28 05:10:54;;;;;;;;;4.00;3.00;;;;;19.05;61.17;100988.06;5075647;28;45335;-86
2023/09/28 05:13:21;;;;;;;;;3.67;2.67;;;;;19.22;60.72;101000.94;5068858;28;45334;-84
2023/09/28 05:15:46;;;;;;;;;2.67;2.67;;;;;19.26;61.02;101021.25;5074544;28;46419;-84
2023/09/28 05:18:12;;;;;;;;;8.33;5.33;;;;;19.12;61.45;101008.09;5076839;27;45313;-84
2023/09/28 05:20:37;;;;;;;;;6.33;3.67;;;;;19.18;61.48;101029.16;5077539;27;45327;-84
2023/09/28 05:23:06;;;;;;;;;7.33;2.67;;;;;19.16;61.51;101031.13;5077197;28;45501;-85
2023/09/28 05:25:33;;;;;;;;;4.00;4.00;;;;;19.06;61.80;101033.75;5076555;28;46551;-85
2023/09/28 05:28:02;;;;;;;;;3.00;2.67;;;;;18.98;62.00;101032.69;5076904;28;45367;-85
2023/09/28 05:30:28;;;;;;;;;6.67;4.00;;;;;18.97;62.27;101036.38;5092671;27;45667;-86
2023/09/28 05:32:53;;;;;;;;;7.00;3.00;;;;;18.92;62.04;101027.81;5081936;28;45462;-88
2023/09/28 05:35:21;;;;;;;;;5.00;3.33;;;;;19.02;62.55;101042.25;5080975;28;55727;-89
2023/09/28 05:37:47;;;;;;;;;2.00;2.00;;;;;18.69;62.34;100983.94;5080964;27;45425;-82
2023/09/28 05:40:12;;;;;;;;;5.00;3.33;;;;;18.87;62.30;101030.88;5075697;28;45604;-86
2023/09/28 05:42:38;;;;;;;;;5.00;3.00;;;;;18.79;62.83;101018.06;5071373;28;45473;-86
2023/09/28 05:45:04;;;;;;;;;3.00;3.00;;;;;18.80;63.04;101035.94;5079888;27;45369;-83
2023/09/28 05:47:33;;;;;;;;;8.00;5.00;;;;;18.80;62.92;101035.94;5072673;27;45345;-90
2023/09/28 05:49:59;;;;;;;;;4.00;3.00;;;;;18.53;63.41;101022.91;5063020;28;45401;-87
2023/09/28 05:52:24;;;;;;;;;7.00;3.00;;;;;18.85;62.81;101071.44;5063467;28;45275;-82
2023/09/28 05:54:49;;;;;;;;;2.00;1.00;;;;;18.81;63.15;101080.78;5062976;28;45216;-82
2023/09/28 05:57:15;;;;;;;;;3.00;2.00;;;;;18.85;62.75;101086.75;5060526;28;45244;-83
2023/09/28 05:59:40;;;;;;;;;3.67;2.67;;;;;18.56;62.64;101017.25;5081640;28;45463;-85
2023/09/28 06:02:06;;;;;;;;;2.00;1.00;;;;;18.90;62.26;101064.81;5083250;27;45361;-82
2023/09/28 06:04:33;;;;;;;;;4.00;3.00;;;;;18.78;62.49;101062.16;5078614;28;48222;-84
2023/09/28 06:06:58;;;;;;;;;5.00;3.33;;;;;18.79;62.38;101082.75;5083119;28;45453;-83
2023/09/28 06:09:23;;;;;;;;;5.33;3.33;;;;;18.74;62.54;101078.69;5082363;28;45525;-84
2023/09/28 06:11:49;;;;;;;;;4.00;2.33;;;;;18.66;62.59;101071.25;5079726;28;45429;-81
2023/09/28 06:14:15;;;;;;;;;3.00;3.00;;;;;18.65;62.77;101077.63;5078767;28;68581;-81
2023/09/28 06:16:42;;;;;;;;;1.67;1.33;;;;;18.60;63.08;101082.50;5081155;27;45279;-81
2023/09/28 06:19:09;;;;;;;;;6.00;4.00;;;;;18.54;63.11;101077.63;5080583;28;45314;-81
2023/09/28 06:21:35;;;;;;;;;6.00;3.00;;;;;18.51;63.13;101073.34;5079439;27;45546;-81
2023/09/28 06:24:01;;;;;;;;;5.67;2.33;;;;;18.55;63.03;101080.19;5078913;27;45593;-81
2023/09/28 06:26:26;;;;;;;;;3.33;2.00;;;;;18.51;63.51;101094.03;5077918;28;46353;-80
2023/09/28 06:28:52;;;;;;;;;10.33;4.00;;;;;18.53;63.67;101094.75;5079725;28;45342;-81
2023/09/28 06:31:19;;;;;;;;;9.33;3.00;;;;;18.52;63.30;101082.28;5081061;28;45340;-81
2023/09/28 06:33:46;;;;;;;;;4.00;3.00;;;;;18.54;63.52;101097.34;5080157;27;46325;-82
2023/09/28 06:36:12;;;;;;;;;4.33;2.33;;;;;18.34;63.41;101067.59;5079483;27;45385;-81
2023/09/28 06:38:37;;;;;;;;;9.33;4.00;;;;;18.54;63.85;101099.16;5078670;28;45300;-81
2023/09/28 06:41:03;;;;;;;;;7.33;6.00;;;;;18.54;63.30;101099.16;5077553;28;45186;-81
2023/09/28 06:43:28;;;;;;;;;6.00;5.67;;;;;18.41;62.80;101083.16;5077291;27;45779;-81
2023/09/28 06:45:56;;;;;;;;;3.33;3.33;;;;;18.27;62.83;101060.03;5078533;27;45266;-82
2023/09/28 06:48:22;;;;;;;;;2.67;2.67;;;;;18.57;62.61;101109.69;5077221;28;45434;-84
2023/09/28 06:50:48;;;;;;;;;7.00;3.00;;;;;18.48;62.37;101091.56;5078403;28;45430;-81
2023/09/28 06:53:15;;;;;;;;;3.33;2.67;;;;;18.63;62.41;101111.91;5079167;28;46959;-81
2023/09/28 06:55:40;;;;;;;;;5.00;3.33;;;;;18.64;62.19;101088.53;5078880;28;45407;-80
2023/09/28 06:58:06;;;;;;;;;5.67;3.00;;;;;18.78;62.05;101099.88;5078584;27;45238;-81
2023/09/28 07:00:32;;;;;;;;;5.00;2.67;;;;;18.59;61.61;101056.53;5079075;27;45563;-82
2023/09/28 07:02:57;;;;;;;;;4.67;4.00;;;;;18.75;61.76;101086.69;5078119;27;45247;-80
2023/09/28 07:05:23;;;;;;;;;9.00;4.00;;;;;18.73;62.19;101088.63;5078075;28;45308;-81
2023/09/28 07:07:49;;;;;;;;;9.67;6.00;;;;;18.83;62.44;101100.34;5078166;27;45249;-79
2023/09/28 07:10:15;;;;;;;;;4.00;3.00;;;;;18.83;61.71;101097.66;5080022;27;45623;-81
2023/09/28 07:12:40;;;;;;;;;5.00;2.67;;;;;18.82;61.05;101098.66;5077165;28;46340;-80
2023/09/28 07:15:08;;;;;;;;;5.67;4.00;;;;;18.69;61.22;101087.16;5077502;27;55231;-80
2023/09/28 07:17:34;;;;;;;;;3.67;2.00;;;;;18.90;60.34;101107.94;5078440;27;45492;-80
2023/09/28 07:20:00;;;;;;;;;10.00;3.33;;;;;18.92;60.03;101092.50;5078249;27;45455;-82
2023/09/28 07:22:26;;;;;;;;;3.00;3.00;;;;;18.90;60.13;101095.34;5078353;27;46387;-81
2023/09/28 07:24:53;;;;;;;;;4.67;2.00;;;;;19.04;60.00;101096.88;5078491;28;45334;-80
2023/09/28 07:27:18;;;;;;;;;5.00;3.67;;;;;19.17;59.74;101127.22;5080345;28;45152;-83
2023/09/28 07:29:44;;;;;;;;;3.67;3.33;;;;;19.21;59.38;101136.75;5079459;27;45210;-81
2023/09/28 07:32:10;;;;;;;;;4.67;2.00;;;;;19.11;59.70;101135.81;5079407;27;46293;-82
2023/09/28 07:34:36;;;;;;;;;24.67;21.67;;;;;19.27;59.79;101163.22;5079938;27;45400;-83
2023/09/28 07:37:01;;;;;;;;;9.00;4.67;;;;;19.11;59.55;101127.72;5080672;27;45264;-82
2023/09/28 07:39:26;;;;;;;;;2.00;1.00;;;;;19.18;59.00;101142.41;5079866;27;45434;-83
2023/09/28 07:41:52;;;;;;;;;4.67;3.00;;;;;19.34;59.06;101148.22;5080388;28;55853;-84
2023/09/28 07:44:19;;;;;;;;;4.00;2.33;;;;;19.50;58.75;101152.31;5079494;28;45592;-84
2023/09/28 07:46:45;;;;;;;;;4.67;3.67;;;;;19.51;57.93;101132.44;5087874;27;45911;-83
2023/09/28 07:49:11;;;;;;;;;11.67;9.00;;;;;19.73;57.94;101153.94;5090703;27;45251;-87
2023/09/28 07:51:36;;;;;;;;;5.00;5.00;;;;;19.73;57.35;101137.75;5082865;27;45410;-81
2023/09/28 07:54:02;;;;;;;;;5.00;3.00;;;;;19.83;56.90;101154.03;5077918;28;45266;-84
2023/09/28 07:56:27;;;;;;;;;4.00;4.00;;;;;19.87;56.62;101147.38;5077830;27;45319;-84
2023/09/28 07:58:52;;;;;;;;;4.33;3.00;;;;;19.65;56.56;101107.88;5078417;27;45244;-81
2023/09/28 08:01:18;;;;;;;;;6.00;4.00;;;;;19.84;56.34;101142.25;5078646;27;57524;-80
2023/09/28 08:03:44;;;;;;;;;7.33;2.67;;;;;19.80;56.45;101159.69;5078494;27;45351;-82
2023/09/28 08:06:10;;;;;;;;;7.67;3.00;;;;;19.84;56.52;101161.13;5077742;28;45376;-84
2023/09/28 08:08:36;;;;;;;;;5.00;4.00;;;;;19.87;56.47;101160.88;5076950;28;45434;-80
2023/09/28 08:11:01;;;;;;;;;5.00;3.67;;;;;19.79;56.20;101148.00;5077760;27;45681;-81
2023/09/28 08:13:27;;;;;;;;;7.67;4.67;;;;;19.87;56.38;101158.16;5077770;28;45296;-81
2023/09/28 08:15:53;;;;;;;;;2.33;2.33;;;;;20.01;56.25;101161.38;5077361;28;47972;-82
2023/09/28 08:18:19;;;;;;;;;8.33;4.33;;;;;20.04;56.15;101166.50;5078176;28;45333;-81
2023/09/28 08:20:44;;;;;;;;;5.33;4.00;;;;;20.23;56.22;101163.06;5077214;28;45377;-85
2023/09/28 08:23:11;;;;;;;;;4.00;3.67;;;;;20.44;55.25;101157.63;5077657;27;45440;-84
2023/09/28 08:25:36;;;;;;;;;3.67;1.00;;;;;20.44;54.29;101133.31;5078749;27;45269;-82
2023/09/28 08:28:02;;;;;;;;;5.00;4.00;;;;;20.65;54.06;101156.75;5077734;27;45496;-82
2023/09/28 08:30:27;;;;;;;;;9.00;5.00;;;;;20.55;53.85;101168.34;5078889;27;45427;-86
2023/09/28 08:32:53;;;;;;;;;6.67;2.33;;;;;20.50;53.81;101181.44;5079296;28;45362;-88
2023/09/28 08:35:18;;;;;;;;;7.33;6.33;;;;;20.47;53.92;101187.13;5083382;28;45238;-84
2023/09/28 08:37:44;;;;;;;;;3.00;3.00;;;;;20.50;53.81;101184.13;5083804;27;45522;-81
2023/09/28 08:40:10;;;;;;;;;12.33;11.33;;;;;20.74;53.98;101200.03;5079888;27;46179;-83
2023/09/28 08:42:40;;;;;;;;;3.67;3.00;;;;;20.87;53.36;101202.50;5080964;27;45227;-81
2023/09/28 08:45:06;;;;;;;;;7.00;5.67;;;;;20.84;53.18;101178.44;5083182;27;45425;-83
2023/09/28 08:47:37;;;;;;;;;5.00;4.00;;;;;21.00;53.02;101200.38;5078512;27;45397;-83
2023/09/28 08:50:03;;;;;;;;;4.00;4.00;;;;;21.13;52.80;101202.84;5076244;28;45414;-83
2023/09/28 08:52:28;;;;;;;;;5.00;3.67;;;;;21.12;52.71;101188.47;5076098;28;45433;-83
2023/09/28 08:54:56;;;;;;;;;3.67;3.00;;;;;21.13;52.57;101190.16;5077201;27;45346;-81
2023/09/28 08:57:21;;;;;;;;;4.33;3.00;;;;;21.16;52.69;101187.19;5077894;27;45252;-82
2023/09/28 08:59:48;;;;;;;;;3.00;3.00;;;;;21.25;52.42;101169.28;5076385;27;45913;-82
2023/09/28 09:02:15;;;;;;;;;3.33;1.00;;;;;21.43;51.96;101180.25;5076788;27;45200;-82
2023/09/28 09:04:41;;;;;;;;;4.00;2.67;;;;;21.47;52.35;101170.84;5076899;27;45313;-81
2023/09/28 09:07:06;;;;;;;;;6.00;4.00;;;;;21.58;52.22;101178.84;5075263;28;45440;-82
2023/09/28 09:09:32;;;;;;;;;5.25;3.00;;;;;21.65;52.16;101169.16;5076313;28;45316;-81
2023/09/28 09:12:04;;;;;;;;;6.33;4.00;;;;;21.63;51.60;101152.22;5074747;28;45524;-83
2023/09/28 09:14:30;;;;;;;;;6.00;3.67;;;;;21.94;51.13;101163.69;5076373;27;45909;-82
2023/09/28 09:16:55;;;;;;;;;2.50;2.25;;;;;22.07;50.76;101155.28;5076570;27;45361;-83
2023/09/28 09:19:21;;;;;;;;;3.67;3.33;;;;;22.08;50.41;101148.88;5076735;28;46131;-82
2023/09/28 09:21:47;;;;;;;;;2.67;2.67;;;;;22.01;50.46;101137.75;5076149;27;45412;-79
2023/09/28 09:24:14;;;;;;;;;4.00;4.00;;;;;22.07;50.26;101152.59;5076175;28;45306;-80
2023/09/28 09:26:43;;;;;;;;;3.25;3.00;;;;;22.00;49.70;101168.50;5077165;27;45607;-86
2023/09/28 09:29:10;;;;;;;;;3.67;2.33;;;;;21.90;49.48;101151.47;5077432;28;47682;-81
2023/09/28 09:31:39;;;;;;;;;2.50;2.50;;;;;21.86;49.79;101122.09;5076087;28;46021;-80
2023/09/28 09:34:05;;;;;;;;;7.67;4.00;;;;;22.08;49.48;101148.88;5077535;27;45441;-79
2023/09/28 09:36:30;;;;;;;;;4.25;4.00;;;;;22.17;49.77;101169.66;5077466;27;45598;-80
2023/09/28 09:38:58;;;;;;;;;3.00;3.00;;;;;22.30;49.40;101174.78;5077305;27;46276;-82
2023/09/28 09:41:24;;;;;;;;;4.33;2.33;;;;;22.43;49.56;101179.84;5077236;28;45252;-83
2023/09/28 09:43:51;;;;;;;;;4.50;2.75;;;;;22.42;48.51;101154.63;5078192;28;45265;-79
2023/09/28 09:46:17;;;;;;;;;4.00;2.25;;;;;22.45;48.35;101137.19;5076949;27;45405;-84
2023/09/28 09:48:44;;;;;;;;;8.00;3.00;;;;;22.66;48.32;101167.63;5077169;27;45561;-82
2023/09/28 09:51:15;;;;;;;;;2.50;2.00;;;;;22.65;47.93;101177.59;5078208;28;45545;-80
2023/09/28 09:53:43;;;;;;;;;4.00;3.33;;;;;22.81;48.51;101173.41;5077106;28;46003;-81
2023/09/28 09:56:09;;;;;;;;;5.00;3.67;;;;;22.95;47.96;101184.63;5079734;27;45521;-79
2023/09/28 09:58:39;;;;;;;;;6.00;3.00;;;;;23.06;47.01;101188.16;5078675;28;48128;-80
2023/09/28 10:01:13;;;;;;;;;21.00;7.00;;;;;23.10;46.90;101184.09;5078686;27;45234;-80
2023/09/28 10:03:42;;;;;;;;;3.33;3.33;;;;;22.97;46.98;101168.19;5081224;27;45254;-81
2023/09/28 10:06:10;;;;;;;;;4.00;4.00;;;;;23.11;46.80;101180.38;5083659;27;45416;-80
2023/09/28 10:08:35;;;;;;;;;5.25;3.75;;;;;23.07;45.76;101174.44;5082003;27;46299;-83
2023/09/28 10:11:04;;;;;;;;;3.00;2.00;;;;;22.96;46.38;101161.06;5079002;28;45580;-80
2023/09/28 10:13:31;;;;;;;;;6.75;3.50;;;;;23.01;46.19;101142.47;5081697;28;45308;-80
2023/09/28 10:16:00;;;;;;;;;5.25;3.00;;;;;23.11;46.49;101161.41;5081410;28;45472;-82
2023/09/28 10:18:29;;;;;;;;;4.75;2.25;;;;;23.25;46.38;101155.44;5082039;27;45448;-79
2023/09/28 10:20:55;;;;;;;;;4.00;2.75;;;;;23.34;45.19;101159.09;5080669;27;45238;-78
2023/09/28 10:23:25;;;;;;;;;5.50;2.00;;;;;23.35;45.39;101150.78;5078510;28;45251;-82
2023/09/28 10:25:56;;;;;;;;;3.50;2.75;;;;;23.55;45.32;101143.31;5080070;28;45362;-80
2023/09/28 10:28:21;;;;;;;;;5.25;5.25;;;;;23.61;45.17;101133.75;5080397;28;45806;-82
2023/09/28 10:30:46;;;;;;;;;3.75;2.00;;;;;23.51;45.00;101134.66;5080372;27;45362;-79
2023/09/28 10:33:12;;;;;;;;;2.75;1.00;;;;;23.38;45.89;101144.19;5079454;28;45294;-86
2023/09/28 10:35:39;;;;;;;;;3.75;1.00;;;;;23.39;45.54;101130.47;5080109;28;45570;-80
2023/09/28 10:38:17;;;;;;;;;3.00;1.25;;;;;23.67;45.30;101146.69;5079426;27;45519;-82
2023/09/28 10:40:44;;;;;;;;;3.25;2.75;;;;;23.75;45.65;101146.75;5079020;28;45457;-80
2023/09/28 10:43:09;;;;;;;;;6.00;3.25;;;;;23.81;45.08;101157.81;5079140;28;45308;-77
2023/09/28 10:45:37;;;;;;;;;2.75;2.75;;;;;23.79;44.86;101129.13;5079459;27;45300;-80
2023/09/28 10:48:05;;;;;;;;;8.25;3.00;;;;;23.74;44.84;101091.59;5079041;27;46025;-80
2023/09/28 10:50:30;;;;;;;;;3.50;2.25;;;;;23.80;44.28;101109.09;5078942;27;45857;-82
2023/09/28 10:52:56;;;;;;;;;3.00;3.00;;;;;23.82;44.47;101124.22;5080982;28;45460;-82
2023/09/28 10:55:22;;;;;;;;;2.50;1.75;;;;;23.91;43.65;101124.28;5081784;27;45218;-82
2023/09/28 10:57:47;;;;;;;;;4.50;3.75;;;;;24.09;42.92;101127.81;5081119;27;45502;-81
2023/09/28 11:00:13;;;;;;;;;1.25;1.00;;;;;24.26;42.96;101128.75;5080848;27;45401;-81
2023/09/28 11:02:40;;;;;;;;;2.50;2.00;;;;;24.22;42.10;101121.91;5080529;27;45230;-83
2023/09/28 11:05:07;;;;;;;;;5.75;2.50;;;;;24.20;42.07;101103.06;5082885;28;45345;-81
2023/09/28 11:07:33;;;;;;;;;2.00;2.00;;;;;24.59;41.63;101130.63;5080989;27;45438;-83
2023/09/28 11:09:58;;;;;;;;;3.50;2.75;;;;;24.90;41.55;101108.31;5080027;28;50064;-80
2023/09/28 11:12:27;;;;;;;;;2.75;2.75;;;;;25.41;40.79;101109.09;5080973;27;45367;-80
2023/09/28 11:14:54;;;;;;;;;4.00;4.00;;;;;25.57;40.27;101100.91;5077600;28;45490;-80
2023/09/28 11:17:19;;;;;;;;;6.50;4.00;;;;;25.52;39.96;101095.09;5078777;28;45298;-79
2023/09/28 11:19:45;;;;;;;;;3.00;3.00;;;;;25.66;38.78;101108.06;5080740;28;52611;-79